EPKT/KTW METAR and TAF weather

Enter ICAO airport designator
Station Type Date Time Source
EPKT METAR 2020/04/07 02:30 UTC NOAA

EPKT 070230Z 09004KT CAVOK 00/M03 Q1031


Station Type Date Time Source
EPKT Decoded METAR 2020/04/07 02:30 UTC NOAA

Katowice, Poland (EPKT) 50-14N 019-02E 284M
Apr 06, 2020 - 10:30 PM EDT / 2020.04.07 0230 UTC
Wind: from the E (090 degrees) at 5 MPH (4 KT):0
Visibility: greater than 7 mile(s):0
Temperature: 32 F (0 C)
Windchill: 26 F (-3 C):1
Dew Point: 26 F (-3 C)
Relative Humidity: 80%
Pressure (altimeter): 30.45 in. Hg (1031 hPa)
ob: EPKT 070230Z 09004KT CAVOK 00/M03 Q1031
cycle: 2

Station Type Date Time Source
EPKT TAF 2020/04/06 18:37 UTC NOAA

TAF EPKT 061730Z 0618/0718 22010KT CAVOK
BECMG 0618/0621 16008KT
BECMG 0707/0709 22012KT
TEMPO 0709/0715 24015G25KT

Example: see airport list